sensor_id;sensor_type;location;lat;lon;timestamp;temperature;humidity
64997;SHT31;51545;51.568;6.998;2023-04-16T00:00:42;8.11;99.99
64997;SHT31;51545;51.568;6.998;2023-04-16T00:03:07;8.11;99.99
64997;SHT31;51545;51.568;6.998;2023-04-16T00:05:33;8.07;99.99
64997;SHT31;51545;51.568;6.998;2023-04-16T00:07:58;8.09;99.99
64997;SHT31;51545;51.568;6.998;2023-04-16T00:10:24;8.09;99.99
64997;SHT31;51545;51.568;6.998;2023-04-16T00:12:49;8.10;99.99
64997;SHT31;51545;51.568;6.998;2023-04-16T00:15:15;8.09;99.99
64997;SHT31;51545;51.568;6.998;2023-04-16T00:17:40;8.06;99.99
64997;SHT31;51545;51.568;6.998;2023-04-16T00:20:06;8.04;99.99
64997;SHT31;51545;51.568;6.998;2023-04-16T00:22:33;8.10;99.99
64997;SHT31;51545;51.568;6.998;2023-04-16T00:24:58;8.13;99.99
64997;SHT31;51545;51.568;6.998;2023-04-16T00:27:23;8.10;99.99
64997;SHT31;51545;51.568;6.998;2023-04-16T00:29:49;8.11;99.99
64997;SHT31;51545;51.568;6.998;2023-04-16T00:32:14;8.09;99.98
64997;SHT31;51545;51.568;6.998;2023-04-16T00:34:40;8.11;99.99
64997;SHT31;51545;51.568;6.998;2023-04-16T00:37:06;8.14;99.99
64997;SHT31;51545;51.568;6.998;2023-04-16T00:39:31;8.11;99.91
64997;SHT31;51545;51.568;6.998;2023-04-16T00:41:56;8.14;99.99
64997;SHT31;51545;51.568;6.998;2023-04-16T00:44:22;8.17;99.96
64997;SHT31;51545;51.568;6.998;2023-04-16T00:46:47;8.20;99.98
64997;SHT31;51545;51.568;6.998;2023-04-16T00:49:13;8.18;99.94
64997;SHT31;51545;51.568;6.998;2023-04-16T00:51:38;8.16;99.99
64997;SHT31;51545;51.568;6.998;2023-04-16T00:54:04;8.22;99.99
64997;SHT31;51545;51.568;6.998;2023-04-16T00:56:30;8.21;99.98
64997;SHT31;51545;51.568;6.998;2023-04-16T00:58:57;8.22;99.88
64997;SHT31;51545;51.568;6.998;2023-04-16T01:01:23;8.25;99.86
64997;SHT31;51545;51.568;6.998;2023-04-16T01:03:48;8.22;99.87
64997;SHT31;51545;51.568;6.998;2023-04-16T01:06:17;8.20;99.74
64997;SHT31;51545;51.568;6.998;2023-04-16T01:08:43;8.21;99.81
64997;SHT31;51545;51.568;6.998;2023-04-16T01:11:09;8.24;99.82
64997;SHT31;51545;51.568;6.998;2023-04-16T01:13:36;8.22;99.78
64997;SHT31;51545;51.568;6.998;2023-04-16T01:16:08;8.21;99.86
64997;SHT31;51545;51.568;6.998;2023-04-16T01:18:35;8.18;99.99
64997;SHT31;51545;51.568;6.998;2023-04-16T01:21:02;8.24;99.99
64997;SHT31;51545;51.568;6.998;2023-04-16T01:23:28;8.21;99.99
64997;SHT31;51545;51.568;6.998;2023-04-16T01:25:53;8.22;99.99
64997;SHT31;51545;51.568;6.998;2023-04-16T01:28:19;8.24;99.99
64997;SHT31;51545;51.568;6.998;2023-04-16T01:30:45;8.24;99.99
64997;SHT31;51545;51.568;6.998;2023-04-16T01:33:10;8.25;99.99
64997;SHT31;51545;51.568;6.998;2023-04-16T01:35:37;8.25;99.99
64997;SHT31;51545;51.568;6.998;2023-04-16T01:38:04;8.28;99.99
64997;SHT31;51545;51.568;6.998;2023-04-16T01:40:30;8.27;99.90
64997;SHT31;51545;51.568;6.998;2023-04-16T01:42:56;8.28;99.77
64997;SHT31;51545;51.568;6.998;2023-04-16T01:45:21;8.31;99.79
64997;SHT31;51545;51.568;6.998;2023-04-16T01:47:50;8.32;99.74
64997;SHT31;51545;51.568;6.998;2023-04-16T01:50:16;8.31;99.69
64997;SHT31;51545;51.568;6.998;2023-04-16T01:52:43;8.31;99.51
64997;SHT31;51545;51.568;6.998;2023-04-16T01:55:08;8.35;99.46
64997;SHT31;51545;51.568;6.998;2023-04-16T01:57:34;8.32;99.37
64997;SHT31;51545;51.568;6.998;2023-04-16T01:59:59;8.31;99.31
64997;SHT31;51545;51.568;6.998;2023-04-16T02:02:25;8.34;99.24
64997;SHT31;51545;51.568;6.998;2023-04-16T02:04:53;8.37;99.14
64997;SHT31;51545;51.568;6.998;2023-04-16T02:07:19;8.39;99.15
64997;SHT31;51545;51.568;6.998;2023-04-16T02:09:45;8.41;99.03
64997;SHT31;51545;51.568;6.998;2023-04-16T02:12:10;8.41;99.00
64997;SHT31;51545;51.568;6.998;2023-04-16T02:14:36;8.41;98.91
64997;SHT31;51545;51.568;6.998;2023-04-16T02:17:02;8.41;98.89
64997;SHT31;51545;51.568;6.998;2023-04-16T02:19:28;8.42;98.82
64997;SHT31;51545;51.568;6.998;2023-04-16T02:21:54;8.44;98.82
64997;SHT31;51545;51.568;6.998;2023-04-16T02:24:19;8.46;98.70
64997;SHT31;51545;51.568;6.998;2023-04-16T02:26:45;8.45;98.70
64997;SHT31;51545;51.568;6.998;2023-04-16T02:29:11;8.44;98.79
64997;SHT31;51545;51.568;6.998;2023-04-16T02:31:37;8.45;98.74
64997;SHT31;51545;51.568;6.998;2023-04-16T02:34:03;8.45;98.79
64997;SHT31;51545;51.568;6.998;2023-04-16T02:36:29;8.44;98.82
64997;SHT31;51545;51.568;6.998;2023-04-16T02:38:55;8.44;98.82
64997;SHT31;51545;51.568;6.998;2023-04-16T02:41:21;8.44;98.89
64997;SHT31;51545;51.568;6.998;2023-04-16T02:43:46;8.46;98.90
64997;SHT31;51545;51.568;6.998;2023-04-16T02:46:12;8.44;98.94
64997;SHT31;51545;51.568;6.998;2023-04-16T02:48:38;8.45;99.04
64997;SHT31;51545;51.568;6.998;2023-04-16T02:51:03;8.44;99.15
64997;SHT31;51545;51.568;6.998;2023-04-16T02:53:29;8.44;99.22
64997;SHT31;51545;51.568;6.998;2023-04-16T02:55:54;8.42;99.15
64997;SHT31;51545;51.568;6.998;2023-04-16T02:58:21;8.45;99.25
64997;SHT31;51545;51.568;6.998;2023-04-16T03:00:48;8.48;99.23
64997;SHT31;51545;51.568;6.998;2023-04-16T03:03:14;8.48;99.17
64997;SHT31;51545;51.568;6.998;2023-04-16T03:05:40;8.49;99.12
64997;SHT31;51545;51.568;6.998;2023-04-16T03:08:06;8.50;99.03
64997;SHT31;51545;51.568;6.998;2023-04-16T03:10:31;8.48;98.96
64997;SHT31;51545;51.568;6.998;2023-04-16T03:12:57;8.48;99.08
64997;SHT31;51545;51.568;6.998;2023-04-16T03:15:23;8.50;99.07
64997;SHT31;51545;51.568;6.998;2023-04-16T03:17:49;8.48;99.04
64997;SHT31;51545;51.568;6.998;2023-04-16T03:20:15;8.49;99.04
64997;SHT31;51545;51.568;6.998;2023-04-16T03:22:44;8.50;99.05
64997;SHT31;51545;51.568;6.998;2023-04-16T03:25:09;8.52;99.06
64997;SHT31;51545;51.568;6.998;2023-04-16T03:27:35;8.53;99.02
64997;SHT31;51545;51.568;6.998;2023-04-16T03:30:00;8.56;98.97
64997;SHT31;51545;51.568;6.998;2023-04-16T03:32:26;8.55;99.02
64997;SHT31;51545;51.568;6.998;2023-04-16T03:34:51;8.55;99.02
64997;SHT31;51545;51.568;6.998;2023-04-16T03:37:17;8.53;99.14
64997;SHT31;51545;51.568;6.998;2023-04-16T03:39:42;8.59;99.21
64997;SHT31;51545;51.568;6.998;2023-04-16T03:42:08;8.55;99.22
64997;SHT31;51545;51.568;6.998;2023-04-16T03:44:33;8.55;99.32
64997;SHT31;51545;51.568;6.998;2023-04-16T03:46:59;8.56;99.36
64997;SHT31;51545;51.568;6.998;2023-04-16T03:49:24;8.53;99.40
64997;SHT31;51545;51.568;6.998;2023-04-16T03:51:50;8.52;99.49
64997;SHT31;51545;51.568;6.998;2023-04-16T03:54:15;8.53;99.59
64997;SHT31;51545;51.568;6.998;2023-04-16T03:56:41;8.52;99.66
64997;SHT31;51545;51.568;6.998;2023-04-16T03:59:07;8.53;99.69
64997;SHT31;51545;51.568;6.998;2023-04-16T04:01:32;8.53;99.66
64997;SHT31;51545;51.568;6.998;2023-04-16T04:03:58;8.52;99.75
64997;SHT31;51545;51.568;6.998;2023-04-16T04:06:23;8.56;99.71
64997;SHT31;51545;51.568;6.998;2023-04-16T04:08:49;8.57;99.64
64997;SHT31;51545;51.568;6.998;2023-04-16T04:11:14;8.60;99.67
64997;SHT31;51545;51.568;6.998;2023-04-16T04:13:40;8.56;99.72
64997;SHT31;51545;51.568;6.998;2023-04-16T04:16:05;8.56;99.79
64997;SHT31;51545;51.568;6.998;2023-04-16T04:18:31;8.59;99.81
64997;SHT31;51545;51.568;6.998;2023-04-16T04:20:57;8.60;99.66
64997;SHT31;51545;51.568;6.998;2023-04-16T04:23:22;8.59;99.66
64997;SHT31;51545;51.568;6.998;2023-04-16T04:25:48;8.63;99.67
64997;SHT31;51545;51.568;6.998;2023-04-16T04:28:13;8.62;99.68
64997;SHT31;51545;51.568;6.998;2023-04-16T04:30:39;8.63;99.68
64997;SHT31;51545;51.568;6.998;2023-04-16T04:33:05;8.60;99.69
64997;SHT31;51545;51.568;6.998;2023-04-16T04:35:31;8.60;99.68
64997;SHT31;51545;51.568;6.998;2023-04-16T04:37:56;8.62;99.66
64997;SHT31;51545;51.568;6.998;2023-04-16T04:40:22;8.60;99.51
64997;SHT31;51545;51.568;6.998;2023-04-16T04:42:47;8.65;99.41
64997;SHT31;51545;51.568;6.998;2023-04-16T04:45:13;8.60;99.25
64997;SHT31;51545;51.568;6.998;2023-04-16T04:47:38;8.67;99.10
64997;SHT31;51545;51.568;6.998;2023-04-16T04:50:04;8.67;98.93
64997;SHT31;51545;51.568;6.998;2023-04-16T04:52:30;8.67;98.91
64997;SHT31;51545;51.568;6.998;2023-04-16T04:54:55;8.66;98.87
64997;SHT31;51545;51.568;6.998;2023-04-16T04:57:21;8.72;98.76
64997;SHT31;51545;51.568;6.998;2023-04-16T04:59:46;8.73;98.62
64997;SHT31;51545;51.568;6.998;2023-04-16T05:02:12;8.72;98.38
64997;SHT31;51545;51.568;6.998;2023-04-16T05:04:38;8.72;98.33
64997;SHT31;51545;51.568;6.998;2023-04-16T05:07:03;8.74;98.08
64997;SHT31;51545;51.568;6.998;2023-04-16T05:09:29;8.74;97.78
64997;SHT31;51545;51.568;6.998;2023-04-16T05:11:54;8.77;97.40
64997;SHT31;51545;51.568;6.998;2023-04-16T05:14:21;8.76;97.25
64997;SHT31;51545;51.568;6.998;2023-04-16T05:16:47;8.79;97.15
64997;SHT31;51545;51.568;6.998;2023-04-16T05:19:12;8.80;96.76
64997;SHT31;51545;51.568;6.998;2023-04-16T05:21:38;8.79;96.67
64997;SHT31;51545;51.568;6.998;2023-04-16T05:24:05;8.83;96.59
64997;SHT31;51545;51.568;6.998;2023-04-16T05:26:30;8.83;96.60
64997;SHT31;51545;51.568;6.998;2023-04-16T05:28:56;8.89;96.35
64997;SHT31;51545;51.568;6.998;2023-04-16T05:31:21;8.92;96.22
64997;SHT31;51545;51.568;6.998;2023-04-16T05:33:47;8.89;96.22
64997;SHT31;51545;51.568;6.998;2023-04-16T05:36:12;8.92;96.05
64997;SHT31;51545;51.568;6.998;2023-04-16T05:38:37;8.97;95.83
64997;SHT31;51545;51.568;6.998;2023-04-16T05:41:03;8.97;95.74
64997;SHT31;51545;51.568;6.998;2023-04-16T05:43:28;8.96;95.69
64997;SHT31;51545;51.568;6.998;2023-04-16T05:45:54;8.96;95.80
64997;SHT31;51545;51.568;6.998;2023-04-16T05:48:19;8.94;95.78
64997;SHT31;51545;51.568;6.998;2023-04-16T05:50:45;8.99;95.83
64997;SHT31;51545;51.568;6.998;2023-04-16T05:53:10;8.99;95.77
64997;SHT31;51545;51.568;6.998;2023-04-16T05:55:38;8.99;95.76
64997;SHT31;51545;51.568;6.998;2023-04-16T05:58:03;8.94;95.77
64997;SHT31;51545;51.568;6.998;2023-04-16T06:00:29;8.94;95.53
64997;SHT31;51545;51.568;6.998;2023-04-16T06:02:55;8.94;95.52
64997;SHT31;51545;51.568;6.998;2023-04-16T06:05:21;8.99;95.74
64997;SHT31;51545;51.568;6.998;2023-04-16T06:07:46;8.99;95.64
64997;SHT31;51545;51.568;6.998;2023-04-16T06:10:12;9.03;95.40
64997;SHT31;51545;51.568;6.998;2023-04-16T06:12:37;9.01;95.36
64997;SHT31;51545;51.568;6.998;2023-04-16T06:15:03;9.03;95.52
64997;SHT31;51545;51.568;6.998;2023-04-16T06:17:29;9.04;95.46
64997;SHT31;51545;51.568;6.998;2023-04-16T06:19:54;9.01;95.44
64997;SHT31;51545;51.568;6.998;2023-04-16T06:22:20;9.05;95.30
64997;SHT31;51545;51.568;6.998;2023-04-16T06:24:46;9.07;95.09
64997;SHT31;51545;51.568;6.998;2023-04-16T06:27:11;9.05;95.00
64997;SHT31;51545;51.568;6.998;2023-04-16T06:29:36;9.10;95.32
64997;SHT31;51545;51.568;6.998;2023-04-16T06:32:02;9.11;95.28
64997;SHT31;51545;51.568;6.998;2023-04-16T06:34:27;9.14;95.32
64997;SHT31;51545;51.568;6.998;2023-04-16T06:36:53;9.17;95.35
64997;SHT31;51545;51.568;6.998;2023-04-16T06:39:19;9.20;95.21
64997;SHT31;51545;51.568;6.998;2023-04-16T06:41:47;9.18;95.31
64997;SHT31;51545;51.568;6.998;2023-04-16T06:44:13;9.25;95.11
64997;SHT31;51545;51.568;6.998;2023-04-16T06:46:39;9.24;94.81
64997;SHT31;51545;51.568;6.998;2023-04-16T06:49:05;9.31;94.66
64997;SHT31;51545;51.568;6.998;2023-04-16T06:51:31;9.32;94.34
64997;SHT31;51545;51.568;6.998;2023-04-16T06:53:57;9.34;94.45
64997;SHT31;51545;51.568;6.998;2023-04-16T06:56:22;9.39;94.50
64997;SHT31;51545;51.568;6.998;2023-04-16T06:58:48;9.43;94.10
64997;SHT31;51545;51.568;6.998;2023-04-16T07:01:14;9.49;93.96
64997;SHT31;51545;51.568;6.998;2023-04-16T07:03:39;9.56;93.78
64997;SHT31;51545;51.568;6.998;2023-04-16T07:06:05;9.60;93.57
64997;SHT31;51545;51.568;6.998;2023-04-16T07:08:30;9.63;93.78
64997;SHT31;51545;51.568;6.998;2023-04-16T07:10:56;9.76;93.11
64997;SHT31;51545;51.568;6.998;2023-04-16T07:13:21;9.80;93.20
64997;SHT31;51545;51.568;6.998;2023-04-16T07:15:47;9.91;93.07
64997;SHT31;51545;51.568;6.998;2023-04-16T07:18:12;9.82;92.37
64997;SHT31;51545;51.568;6.998;2023-04-16T07:20:38;9.83;92.72
64997;SHT31;51545;51.568;6.998;2023-04-16T07:23:03;9.82;92.83
64997;SHT31;51545;51.568;6.998;2023-04-16T07:25:29;9.79;92.49
64997;SHT31;51545;51.568;6.998;2023-04-16T07:27:54;9.83;92.50
64997;SHT31;51545;51.568;6.998;2023-04-16T07:30:19;9.82;92.31
64997;SHT31;51545;51.568;6.998;2023-04-16T07:32:45;9.90;92.16
64997;SHT31;51545;51.568;6.998;2023-04-16T07:35:10;9.94;91.96
64997;SHT31;51545;51.568;6.998;2023-04-16T07:37:36;10.01;91.92
64997;SHT31;51545;51.568;6.998;2023-04-16T07:40:01;10.11;92.04
64997;SHT31;51545;51.568;6.998;2023-04-16T07:42:28;10.15;91.40
64997;SHT31;51545;51.568;6.998;2023-04-16T07:44:53;10.25;91.27
64997;SHT31;51545;51.568;6.998;2023-04-16T07:47:19;10.36;91.45
64997;SHT31;51545;51.568;6.998;2023-04-16T07:49:45;10.43;90.58
64997;SHT31;51545;51.568;6.998;2023-04-16T07:52:10;10.40;89.98
64997;SHT31;51545;51.568;6.998;2023-04-16T07:54:36;10.35;89.82
64997;SHT31;51545;51.568;6.998;2023-04-16T07:57:01;10.42;90.25
64997;SHT31;51545;51.568;6.998;2023-04-16T07:59:27;10.49;90.06
64997;SHT31;51545;51.568;6.998;2023-04-16T08:01:52;10.63;89.72
64997;SHT31;51545;51.568;6.998;2023-04-16T08:04:18;10.72;89.47
64997;SHT31;51545;51.568;6.998;2023-04-16T08:06:48;10.80;88.86
64997;SHT31;51545;51.568;6.998;2023-04-16T08:09:15;10.95;88.65
64997;SHT31;51545;51.568;6.998;2023-04-16T08:11:40;10.94;88.32
64997;SHT31;51545;51.568;6.998;2023-04-16T08:14:06;11.19;87.89
64997;SHT31;51545;51.568;6.998;2023-04-16T08:16:31;11.36;87.38
64997;SHT31;51545;51.568;6.998;2023-04-16T08:18:57;11.32;86.77
64997;SHT31;51545;51.568;6.998;2023-04-16T08:21:25;11.29;86.68
64997;SHT31;51545;51.568;6.998;2023-04-16T08:23:51;11.34;86.26
64997;SHT31;51545;51.568;6.998;2023-04-16T08:26:17;11.43;86.13
64997;SHT31;51545;51.568;6.998;2023-04-16T08:28:43;11.34;85.97
64997;SHT31;51545;51.568;6.998;2023-04-16T08:31:08;11.39;86.46
64997;SHT31;51545;51.568;6.998;2023-04-16T08:33:34;11.43;86.69
64997;SHT31;51545;51.568;6.998;2023-04-16T08:35:59;11.38;86.19
64997;SHT31;51545;51.568;6.998;2023-04-16T08:38:25;11.36;86.74
64997;SHT31;51545;51.568;6.998;2023-04-16T08:40:50;11.55;86.77
64997;SHT31;51545;51.568;6.998;2023-04-16T08:43:18;11.71;86.51
64997;SHT31;51545;51.568;6.998;2023-04-16T08:45:46;11.90;85.60
64997;SHT31;51545;51.568;6.998;2023-04-16T08:48:12;11.84;84.71
64997;SHT31;51545;51.568;6.998;2023-04-16T08:50:37;11.93;84.23
64997;SHT31;51545;51.568;6.998;2023-04-16T08:53:05;11.95;84.02
64997;SHT31;51545;51.568;6.998;2023-04-16T08:55:42;11.94;84.21
64997;SHT31;51545;51.568;6.998;2023-04-16T08:58:17;11.95;84.44
64997;SHT31;51545;51.568;6.998;2023-04-16T09:00:44;11.91;83.84
64997;SHT31;51545;51.568;6.998;2023-04-16T09:03:11;11.93;84.33
64997;SHT31;51545;51.568;6.998;2023-04-16T09:05:37;11.93;85.41
64997;SHT31;51545;51.568;6.998;2023-04-16T09:08:04;11.74;84.72
64997;SHT31;51545;51.568;6.998;2023-04-16T09:10:30;11.77;84.32
64997;SHT31;51545;51.568;6.998;2023-04-16T09:12:56;11.83;85.16
64997;SHT31;51545;51.568;6.998;2023-04-16T09:15:22;11.81;84.73
64997;SHT31;51545;51.568;6.998;2023-04-16T09:17:53;11.87;84.56
64997;SHT31;51545;51.568;6.998;2023-04-16T09:20:20;11.87;83.89
64997;SHT31;51545;51.568;6.998;2023-04-16T09:22:46;11.94;83.96
64997;SHT31;51545;51.568;6.998;2023-04-16T09:25:12;12.04;83.76
64997;SHT31;51545;51.568;6.998;2023-04-16T09:27:38;12.04;82.81
64997;SHT31;51545;51.568;6.998;2023-04-16T09:30:20;12.28;83.27
64997;SHT31;51545;51.568;6.998;2023-04-16T09:32:50;12.55;83.22
64997;SHT31;51545;51.568;6.998;2023-04-16T09:35:20;12.43;81.92
64997;SHT31;51545;51.568;6.998;2023-04-16T09:37:55;12.57;82.26
64997;SHT31;51545;51.568;6.998;2023-04-16T09:40:25;12.77;81.68
64997;SHT31;51545;51.568;6.998;2023-04-16T09:42:51;12.69;81.01
64997;SHT31;51545;51.568;6.998;2023-04-16T09:45:21;12.61;81.37
64997;SHT31;51545;51.568;6.998;2023-04-16T09:47:46;12.74;81.47
64997;SHT31;51545;51.568;6.998;2023-04-16T09:50:16;12.67;81.18
64997;SHT31;51545;51.568;6.998;2023-04-16T09:52:43;12.81;80.58
64997;SHT31;51545;51.568;6.998;2023-04-16T09:55:10;12.76;80.70
64997;SHT31;51545;51.568;6.998;2023-04-16T09:57:36;12.83;81.38
64997;SHT31;51545;51.568;6.998;2023-04-16T10:00:03;12.88;81.31
64997;SHT31;51545;51.568;6.998;2023-04-16T10:02:31;12.93;80.23
64997;SHT31;51545;51.568;6.998;2023-04-16T10:04:59;13.10;80.14
64997;SHT31;51545;51.568;6.998;2023-04-16T10:07:27;13.07;79.82
64997;SHT31;51545;51.568;6.998;2023-04-16T10:09:53;13.15;79.07
64997;SHT31;51545;51.568;6.998;2023-04-16T10:12:19;13.07;79.19
64997;SHT31;51545;51.568;6.998;2023-04-16T10:14:45;12.91;79.22
64997;SHT31;51545;51.568;6.998;2023-04-16T10:17:11;12.91;79.33
64997;SHT31;51545;51.568;6.998;2023-04-16T10:19:36;12.74;80.36
64997;SHT31;51545;51.568;6.998;2023-04-16T10:22:02;12.85;79.98
64997;SHT31;51545;51.568;6.998;2023-04-16T10:24:29;12.91;80.00
64997;SHT31;51545;51.568;6.998;2023-04-16T10:26:56;13.04;79.70
64997;SHT31;51545;51.568;6.998;2023-04-16T10:29:22;13.19;78.96
64997;SHT31;51545;51.568;6.998;2023-04-16T10:31:49;13.23;78.86
64997;SHT31;51545;51.568;6.998;2023-04-16T10:37:10;13.33;77.78
64997;SHT31;51545;51.568;6.998;2023-04-16T10:39:36;13.40;77.42
64997;SHT31;51545;51.568;6.998;2023-04-16T10:42:06;13.70;76.40
64997;SHT31;51545;51.568;6.998;2023-04-16T10:44:33;13.87;76.12
64997;SHT31;51545;51.568;6.998;2023-04-16T10:46:59;13.84;76.94
64997;SHT31;51545;51.568;6.998;2023-04-16T10:49:24;13.81;77.10
64997;SHT31;51545;51.568;6.998;2023-04-16T10:51:57;13.61;76.87
64997;SHT31;51545;51.568;6.998;2023-04-16T10:54:28;13.63;77.51
64997;SHT31;51545;51.568;6.998;2023-04-16T10:56:55;13.57;76.25
64997;SHT31;51545;51.568;6.998;2023-04-16T10:59:23;13.61;76.23
64997;SHT31;51545;51.568;6.998;2023-04-16T11:01:53;13.66;76.24
64997;SHT31;51545;51.568;6.998;2023-04-16T11:12:11;14.81;74.23
64997;SHT31;51545;51.568;6.998;2023-04-16T11:14:51;15.75;71.72
64997;SHT31;51545;51.568;6.998;2023-04-16T11:17:18;15.80;70.22
64997;SHT31;51545;51.568;6.998;2023-04-16T11:19:45;15.80;69.47
64997;SHT31;51545;51.568;6.998;2023-04-16T11:22:11;15.36;68.89
64997;SHT31;51545;51.568;6.998;2023-04-16T11:24:39;15.26;72.34
64997;SHT31;51545;51.568;6.998;2023-04-16T11:27:05;14.88;71.33
64997;SHT31;51545;51.568;6.998;2023-04-16T11:29:31;14.53;72.73
64997;SHT31;51545;51.568;6.998;2023-04-16T11:32:00;14.52;73.54
64997;SHT31;51545;51.568;6.998;2023-04-16T11:34:28;14.77;73.08
64997;SHT31;51545;51.568;6.998;2023-04-16T11:36:53;15.18;73.42
64997;SHT31;51545;51.568;6.998;2023-04-16T11:39:19;15.28;70.86
64997;SHT31;51545;51.568;6.998;2023-04-16T11:41:47;14.84;70.80
64997;SHT31;51545;51.568;6.998;2023-04-16T11:44:22;14.60;72.46
64997;SHT31;51545;51.568;6.998;2023-04-16T11:46:49;14.71;72.67
64997;SHT31;51545;51.568;6.998;2023-04-16T11:49:16;14.56;71.33
64997;SHT31;51545;51.568;6.998;2023-04-16T11:51:51;14.63;71.65
64997;SHT31;51545;51.568;6.998;2023-04-16T11:54:18;15.04;71.16
64997;SHT31;51545;51.568;6.998;2023-04-16T11:56:45;15.36;70.35
64997;SHT31;51545;51.568;6.998;2023-04-16T11:59:18;15.63;69.83
64997;SHT31;51545;51.568;6.998;2023-04-16T12:01:51;15.31;68.44
64997;SHT31;51545;51.568;6.998;2023-04-16T12:04:20;15.06;69.03
64997;SHT31;51545;51.568;6.998;2023-04-16T12:09:38;14.97;69.96
64997;SHT31;51545;51.568;6.998;2023-04-16T12:12:05;14.95;70.12
64997;SHT31;51545;51.568;6.998;2023-04-16T12:14:31;14.71;70.43
64997;SHT31;51545;51.568;6.998;2023-04-16T12:19:49;14.33;71.92
64997;SHT31;51545;51.568;6.998;2023-04-16T12:22:15;14.16;72.86
64997;SHT31;51545;51.568;6.998;2023-04-16T12:24:41;14.05;74.16
64997;SHT31;51545;51.568;6.998;2023-04-16T12:27:06;14.08;74.76
64997;SHT31;51545;51.568;6.998;2023-04-16T12:29:33;13.93;74.81
64997;SHT31;51545;51.568;6.998;2023-04-16T12:31:58;13.77;75.11
64997;SHT31;51545;51.568;6.998;2023-04-16T12:34:24;13.81;75.29
64997;SHT31;51545;51.568;6.998;2023-04-16T12:37:04;13.59;75.84
64997;SHT31;51545;51.568;6.998;2023-04-16T12:39:31;13.57;75.58
64997;SHT31;51545;51.568;6.998;2023-04-16T12:41:57;13.77;75.45
64997;SHT31;51545;51.568;6.998;2023-04-16T12:44:22;14.04;75.09
64997;SHT31;51545;51.568;6.998;2023-04-16T12:46:48;14.18;75.43
64997;SHT31;51545;51.568;6.998;2023-04-16T12:49:13;14.23;74.75
64997;SHT31;51545;51.568;6.998;2023-04-16T12:51:38;14.26;74.91
64997;SHT31;51545;51.568;6.998;2023-04-16T12:54:05;14.28;74.56
64997;SHT31;51545;51.568;6.998;2023-04-16T12:56:34;14.30;74.24
64997;SHT31;51545;51.568;6.998;2023-04-16T12:59:00;14.37;74.31
64997;SHT31;51545;51.568;6.998;2023-04-16T13:01:25;14.34;74.07
64997;SHT31;51545;51.568;6.998;2023-04-16T13:03:51;14.50;73.92
64997;SHT31;51545;51.568;6.998;2023-04-16T13:06:17;14.40;74.49
64997;SHT31;51545;51.568;6.998;2023-04-16T13:08:43;14.50;74.40
64997;SHT31;51545;51.568;6.998;2023-04-16T13:11:09;14.40;74.08
64997;SHT31;51545;51.568;6.998;2023-04-16T13:13:34;14.40;73.85
64997;SHT31;51545;51.568;6.998;2023-04-16T13:16:00;14.63;73.53
64997;SHT31;51545;51.568;6.998;2023-04-16T13:18:28;14.98;72.37
64997;SHT31;51545;51.568;6.998;2023-04-16T13:20:53;15.32;71.24
64997;SHT31;51545;51.568;6.998;2023-04-16T13:23:19;15.66;70.73
64997;SHT31;51545;51.568;6.998;2023-04-16T13:25:45;15.52;70.11
64997;SHT31;51545;51.568;6.998;2023-04-16T13:28:10;15.57;70.21
64997;SHT31;51545;51.568;6.998;2023-04-16T13:30:35;16.04;69.69
64997;SHT31;51545;51.568;6.998;2023-04-16T13:33:01;16.47;68.91
64997;SHT31;51545;51.568;6.998;2023-04-16T13:35:27;16.15;69.52
64997;SHT31;51545;51.568;6.998;2023-04-16T13:37:53;16.04;69.02
64997;SHT31;51545;51.568;6.998;2023-04-16T13:40:19;16.04;70.05
64997;SHT31;51545;51.568;6.998;2023-04-16T13:42:44;15.82;69.81
64997;SHT31;51545;51.568;6.998;2023-04-16T13:45:10;15.80;69.31
64997;SHT31;51545;51.568;6.998;2023-04-16T13:47:37;15.95;69.83
64997;SHT31;51545;51.568;6.998;2023-04-16T13:50:05;15.85;69.42
64997;SHT31;51545;51.568;6.998;2023-04-16T13:52:31;15.57;69.03
64997;SHT31;51545;51.568;6.998;2023-04-16T13:54:56;15.54;70.96
64997;SHT31;51545;51.568;6.998;2023-04-16T13:57:22;15.23;70.76
64997;SHT31;51545;51.568;6.998;2023-04-16T13:59:47;15.11;70.84
64997;SHT31;51545;51.568;6.998;2023-04-16T14:02:13;15.05;71.26
64997;SHT31;51545;51.568;6.998;2023-04-16T14:04:38;14.98;71.31
64997;SHT31;51545;51.568;6.998;2023-04-16T14:07:04;14.94;72.27
64997;SHT31;51545;51.568;6.998;2023-04-16T14:09:29;14.91;71.85
64997;SHT31;51545;51.568;6.998;2023-04-16T14:11:55;14.95;72.27
64997;SHT31;51545;51.568;6.998;2023-04-16T14:14:20;14.92;72.15
64997;SHT31;51545;51.568;6.998;2023-04-16T14:16:46;14.80;72.70
64997;SHT31;51545;51.568;6.998;2023-04-16T14:19:11;14.84;71.81
64997;SHT31;51545;51.568;6.998;2023-04-16T14:21:37;14.94;71.64
64997;SHT31;51545;51.568;6.998;2023-04-16T14:24:02;15.02;71.55
64997;SHT31;51545;51.568;6.998;2023-04-16T14:26:28;14.91;71.00
64997;SHT31;51545;51.568;6.998;2023-04-16T14:28:54;14.98;70.69
64997;SHT31;51545;51.568;6.998;2023-04-16T14:31:19;14.84;71.76
64997;SHT31;51545;51.568;6.998;2023-04-16T14:33:45;15.05;70.70
64997;SHT31;51545;51.568;6.998;2023-04-16T14:36:10;15.50;71.52
64997;SHT31;51545;51.568;6.998;2023-04-16T14:38:36;15.99;69.23
64997;SHT31;51545;51.568;6.998;2023-04-16T14:41:02;16.50;67.78
64997;SHT31;51545;51.568;6.998;2023-04-16T14:43:27;16.29;66.77
64997;SHT31;51545;51.568;6.998;2023-04-16T14:45:53;15.91;66.56
64997;SHT31;51545;51.568;6.998;2023-04-16T14:48:18;15.88;67.38
64997;SHT31;51545;51.568;6.998;2023-04-16T14:50:43;16.78;65.70
64997;SHT31;51545;51.568;6.998;2023-04-16T14:53:10;18.08;63.62
64997;SHT31;51545;51.568;6.998;2023-04-16T14:55:36;18.56;60.05
64997;SHT31;51545;51.568;6.998;2023-04-16T14:58:01;19.75;58.85
64997;SHT31;51545;51.568;6.998;2023-04-16T15:00:27;19.70;56.99
64997;SHT31;51545;51.568;6.998;2023-04-16T15:02:53;19.98;56.42
64997;SHT31;51545;51.568;6.998;2023-04-16T15:05:19;20.44;55.55
64997;SHT31;51545;51.568;6.998;2023-04-16T15:07:47;20.44;56.31
64997;SHT31;51545;51.568;6.998;2023-04-16T15:10:12;19.68;54.83
64997;SHT31;51545;51.568;6.998;2023-04-16T15:12:38;19.03;56.80
64997;SHT31;51545;51.568;6.998;2023-04-16T15:15:04;19.86;56.41
64997;SHT31;51545;51.568;6.998;2023-04-16T15:17:31;20.85;54.32
64997;SHT31;51545;51.568;6.998;2023-04-16T15:19:56;20.90;53.33
64997;SHT31;51545;51.568;6.998;2023-04-16T15:22:22;20.80;52.62
64997;SHT31;51545;51.568;6.998;2023-04-16T15:24:47;21.32;53.13
64997;SHT31;51545;51.568;6.998;2023-04-16T15:27:13;21.22;52.82
64997;SHT31;51545;51.568;6.998;2023-04-16T15:29:39;20.26;53.69
64997;SHT31;51545;51.568;6.998;2023-04-16T15:32:05;19.16;56.43
64997;SHT31;51545;51.568;6.998;2023-04-16T15:34:31;18.56;57.74
64997;SHT31;51545;51.568;6.998;2023-04-16T15:36:56;18.18;58.53
64997;SHT31;51545;51.568;6.998;2023-04-16T15:39:22;17.66;59.04
64997;SHT31;51545;51.568;6.998;2023-04-16T15:41:47;17.18;60.18
64997;SHT31;51545;51.568;6.998;2023-04-16T15:44:13;16.91;62.01
64997;SHT31;51545;51.568;6.998;2023-04-16T15:46:38;16.67;62.15